Aérodrome :
LOGIN :

S'inscrire | Disclaimer

   EN    FR    IT 

 










Légende :    VFR   VFR Marginal   IFR   IFR Intensif   IFR Très Intensif
Visi : 
Plafond : 
>= 8 km
>= 3000ft
5 à 8 km
1000 à 3000 ft
1500m à 5 km
500 à 1000 ft
800 à 1500m
200 à 500 ft
< 800m
< 200 ft
Symboles :   Orages  Brouillard  Fortes neiges  Fortes précipitations  Vent > 20 kt
SIGMETs :   Divers  Orages  Givrage  Turbulence  Onde Orograph.  Cendres Volcan.







- Altitude de l'aérodrome : 62 ft
- Code IATA : TAN


GMTT - Tanger Ibn Batouta

DERNIER METAR :
  • 181400Z 30009KT 9999 1500W FEW008 26/20 Q1015 NOSIG

METARs EXPIRÉS :
  • 181330Z 27009KT 9999 FEW020 27/20 Q1016 NOSIG
  • 181300Z 29008KT CAVOK 28/20 Q1016 NOSIG
  • 181230Z 30009KT CAVOK 28/20 Q1016 NOSIG
  • 181200Z 32008KT 290V350 9999 FEW020 28/20 Q1016 NOSIG
  • 181130Z 32009KT 9999 FEW020 27/19 Q1016 NOSIG

TAF TAF GMTT
Valide du 18 à 12h jusqu'au 19 à 18h UTC


181100Z 1812/1918 31008KT 9999 FEW016
TEMPO 1823/1907 3000 BR SCT008 BKN015
BECMG 1912/1914 10013KT
Pas de NOTAMs connus pour ce terrain.
1 SIGMET publié pour la FIR Casablanca (GMMM) :
 
Orages noyés dans la masse
GMMM SIGMET R1 VALID 181400/181800 GMMC
GMMM CASABLANCA FIR EMBD TS FCST E OF LINE N3510 W00358 - N3150 W005 38 - N3141 W00303 TOP FL420 STNR INTSF=



MET'MAP, la Météo Aéronautique d'un coup d'oeil ! - Copyright ORBIFLY Décembre 2007 - Disclaimer

ORBIFLY MET'MAP TEAM :

Programmation & Développement : Alexandra Zaïnal
Conception & Développement : Baudouin d'Aumeries
Co-Programmation & Développement : Marc-Olivier Méhu
Soutien technique & logistique : Manuel Goepfert

Contact : metmap@orbifly.com




SOURCES & CREDITS :

   NOAA